sensor_id;sensor_type;location;lat;lon;timestamp;pressure;altitude;pressure_sealevel;temperature;humidity
36630;BME280;36256;42.154;23.002;2023-02-10T00:02:02;99047.84;;;-4.06;81.35
36630;BME280;36256;42.154;23.002;2023-02-10T00:04:29;99039.09;;;-4.16;80.89
36630;BME280;36256;42.154;23.002;2023-02-10T00:06:55;99041.34;;;-4.18;82.63
36630;BME280;36256;42.154;23.002;2023-02-10T00:09:22;99048.69;;;-4.27;84.15
36630;BME280;36256;42.154;23.002;2023-02-10T00:11:48;99043.75;;;-4.47;84.52
36630;BME280;36256;42.154;23.002;2023-02-10T00:14:27;99042.84;;;-4.65;85.45
36630;BME280;36256;42.154;23.002;2023-02-10T00:16:54;99041.03;;;-4.69;85.44
36630;BME280;36256;42.154;23.002;2023-02-10T00:19:23;99044.53;;;-4.78;85.55
36630;BME280;36256;42.154;23.002;2023-02-10T00:21:51;99041.16;;;-4.74;85.32
36630;BME280;36256;42.154;23.002;2023-02-10T00:24:17;99035.00;;;-4.80;85.54
36630;BME280;36256;42.154;23.002;2023-02-10T00:26:44;99037.03;;;-4.86;85.64
36630;BME280;36256;42.154;23.002;2023-02-10T00:29:11;99039.66;;;-4.81;85.89
36630;BME280;36256;42.154;23.002;2023-02-10T00:31:38;99047.94;;;-4.72;83.89
36630;BME280;36256;42.154;23.002;2023-02-10T00:34:05;99039.28;;;-4.65;82.97
36630;BME280;36256;42.154;23.002;2023-02-10T00:36:32;99037.41;;;-4.56;84.64
36630;BME280;36256;42.154;23.002;2023-02-10T00:38:58;99039.03;;;-4.55;85.25
36630;BME280;36256;42.154;23.002;2023-02-10T00:41:25;99027.94;;;-4.50;85.69
36630;BME280;36256;42.154;23.002;2023-02-10T00:43:53;99034.91;;;-4.44;84.61
36630;BME280;36256;42.154;23.002;2023-02-10T00:46:21;99028.59;;;-4.45;83.63
36630;BME280;36256;42.154;23.002;2023-02-10T00:48:48;99014.00;;;-4.62;83.50
36630;BME280;36256;42.154;23.002;2023-02-10T00:51:16;99034.03;;;-4.53;84.58
36630;BME280;36256;42.154;23.002;2023-02-10T00:53:43;99033.06;;;-4.57;84.02
36630;BME280;36256;42.154;23.002;2023-02-10T00:56:10;99036.78;;;-4.53;84.62
36630;BME280;36256;42.154;23.002;2023-02-10T00:58:37;99018.84;;;-4.59;84.34
36630;BME280;36256;42.154;23.002;2023-02-10T01:01:04;99028.34;;;-4.65;83.95
36630;BME280;36256;42.154;23.002;2023-02-10T01:03:31;99026.22;;;-4.68;84.04
36630;BME280;36256;42.154;23.002;2023-02-10T01:05:58;99029.28;;;-4.70;86.16
36630;BME280;36256;42.154;23.002;2023-02-10T01:08:25;99014.91;;;-4.75;84.91
36630;BME280;36256;42.154;23.002;2023-02-10T01:11:09;99034.56;;;-4.73;84.51
36630;BME280;36256;42.154;23.002;2023-02-10T01:13:37;99009.06;;;-4.83;85.27
36630;BME280;36256;42.154;23.002;2023-02-10T01:16:08;99024.34;;;-4.59;83.44
36630;BME280;36256;42.154;23.002;2023-02-10T01:18:37;99030.31;;;-4.57;82.93
36630;BME280;36256;42.154;23.002;2023-02-10T01:21:08;99028.72;;;-4.58;82.28
36630;BME280;36256;42.154;23.002;2023-02-10T01:23:35;99028.50;;;-4.62;82.24
36630;BME280;36256;42.154;23.002;2023-02-10T01:26:02;99019.63;;;-4.67;82.95
36630;BME280;36256;42.154;23.002;2023-02-10T01:28:29;99028.44;;;-4.70;83.24
36630;BME280;36256;42.154;23.002;2023-02-10T01:30:56;99024.38;;;-4.82;83.80
36630;BME280;36256;42.154;23.002;2023-02-10T01:33:23;99030.78;;;-4.86;84.91
36630;BME280;36256;42.154;23.002;2023-02-10T01:35:49;99032.22;;;-4.89;86.06
36630;BME280;36256;42.154;23.002;2023-02-10T01:38:16;99025.47;;;-4.83;86.02
36630;BME280;36256;42.154;23.002;2023-02-10T01:40:42;99025.22;;;-4.72;84.71
36630;BME280;36256;42.154;23.002;2023-02-10T01:43:16;99030.69;;;-4.72;84.09
36630;BME280;36256;42.154;23.002;2023-02-10T01:45:43;99029.38;;;-4.75;83.40
36630;BME280;36256;42.154;23.002;2023-02-10T01:48:13;99023.63;;;-4.73;81.97
36630;BME280;36256;42.154;23.002;2023-02-10T01:50:44;99024.78;;;-4.66;80.23
36630;BME280;36256;42.154;23.002;2023-02-10T01:53:14;99026.41;;;-4.65;79.32
36630;BME280;36256;42.154;23.002;2023-02-10T01:55:43;99024.59;;;-4.69;80.95
36630;BME280;36256;42.154;23.002;2023-02-10T01:58:13;99012.84;;;-4.70;81.20
36630;BME280;36256;42.154;23.002;2023-02-10T02:00:40;99006.97;;;-4.77;84.05
36630;BME280;36256;42.154;23.002;2023-02-10T02:03:07;99012.34;;;-4.94;84.85
36630;BME280;36256;42.154;23.002;2023-02-10T02:05:36;99016.22;;;-4.95;83.75
36630;BME280;36256;42.154;23.002;2023-02-10T02:08:05;99014.63;;;-4.88;81.65
36630;BME280;36256;42.154;23.002;2023-02-10T02:13:19;99012.28;;;-4.81;81.69
36630;BME280;36256;42.154;23.002;2023-02-10T02:15:57;98987.16;;;-5.05;81.68
36630;BME280;36256;42.154;23.002;2023-02-10T02:27:01;99011.16;;;-5.02;82.89
36630;BME280;36256;42.154;23.002;2023-02-10T02:32:21;99013.22;;;-5.07;83.91
36630;BME280;36256;42.154;23.002;2023-02-10T02:35:07;99007.56;;;-5.11;84.65
36630;BME280;36256;42.154;23.002;2023-02-10T02:37:38;99020.75;;;-5.13;84.65
36630;BME280;36256;42.154;23.002;2023-02-10T02:40:07;99018.00;;;-5.13;83.08
36630;BME280;36256;42.154;23.002;2023-02-10T02:42:35;99010.44;;;-5.16;83.30
36630;BME280;36256;42.154;23.002;2023-02-10T02:45:08;99020.38;;;-5.20;84.50
36630;BME280;36256;42.154;23.002;2023-02-10T02:50:39;99004.81;;;-5.33;81.73
36630;BME280;36256;42.154;23.002;2023-02-10T03:01:23;99024.63;;;-5.49;86.60
36630;BME280;36256;42.154;23.002;2023-02-10T03:03:57;99008.56;;;-5.78;87.72
36630;BME280;36256;42.154;23.002;2023-02-10T03:06:24;99020.75;;;-5.84;89.05
36630;BME280;36256;42.154;23.002;2023-02-10T03:08:51;98995.38;;;-6.12;90.41
36630;BME280;36256;42.154;23.002;2023-02-10T03:11:18;99021.19;;;-6.04;91.58
36630;BME280;36256;42.154;23.002;2023-02-10T03:13:44;99005.91;;;-6.05;90.96
36630;BME280;36256;42.154;23.002;2023-02-10T03:16:11;99023.09;;;-5.91;90.81
36630;BME280;36256;42.154;23.002;2023-02-10T03:18:38;99017.53;;;-5.86;87.98
36630;BME280;36256;42.154;23.002;2023-02-10T03:21:05;99016.50;;;-5.90;87.01
36630;BME280;36256;42.154;23.002;2023-02-10T03:23:31;99011.06;;;-5.90;85.88
36630;BME280;36256;42.154;23.002;2023-02-10T03:25:59;99029.78;;;-5.84;86.23
36630;BME280;36256;42.154;23.002;2023-02-10T03:28:26;99031.56;;;-5.79;85.97
36630;BME280;36256;42.154;23.002;2023-02-10T03:30:53;99019.81;;;-5.66;85.53
36630;BME280;36256;42.154;23.002;2023-02-10T03:33:22;99006.91;;;-5.66;85.42
36630;BME280;36256;42.154;23.002;2023-02-10T03:35:49;99019.06;;;-5.58;86.30
36630;BME280;36256;42.154;23.002;2023-02-10T03:38:19;99007.81;;;-5.57;86.63
36630;BME280;36256;42.154;23.002;2023-02-10T03:40:49;98988.28;;;-5.64;84.82
36630;BME280;36256;42.154;23.002;2023-02-10T03:43:17;99011.88;;;-5.54;83.33
36630;BME280;36256;42.154;23.002;2023-02-10T03:45:44;99006.91;;;-5.52;82.47
36630;BME280;36256;42.154;23.002;2023-02-10T03:48:11;99006.50;;;-5.59;82.65
36630;BME280;36256;42.154;23.002;2023-02-10T03:50:38;99000.44;;;-5.70;82.56
36630;BME280;36256;42.154;23.002;2023-02-10T03:53:05;98999.13;;;-5.72;81.23
36630;BME280;36256;42.154;23.002;2023-02-10T03:55:32;99010.06;;;-5.72;82.14
36630;BME280;36256;42.154;23.002;2023-02-10T03:58:00;99002.50;;;-5.75;83.33
36630;BME280;36256;42.154;23.002;2023-02-10T04:00:28;99011.28;;;-5.78;81.71
36630;BME280;36256;42.154;23.002;2023-02-10T04:02:55;98998.44;;;-5.78;80.26
36630;BME280;36256;42.154;23.002;2023-02-10T04:05:21;98991.97;;;-5.82;80.57
36630;BME280;36256;42.154;23.002;2023-02-10T04:07:48;98994.06;;;-5.87;80.18
36630;BME280;36256;42.154;23.002;2023-02-10T04:10:14;98997.28;;;-5.85;83.09
36630;BME280;36256;42.154;23.002;2023-02-10T04:12:41;99001.94;;;-5.86;83.87
36630;BME280;36256;42.154;23.002;2023-02-10T04:15:08;99003.34;;;-5.88;84.54
36630;BME280;36256;42.154;23.002;2023-02-10T04:17:34;99002.34;;;-5.92;86.41
36630;BME280;36256;42.154;23.002;2023-02-10T04:20:01;99002.94;;;-5.95;84.75
36630;BME280;36256;42.154;23.002;2023-02-10T04:22:28;98994.75;;;-5.95;84.67
36630;BME280;36256;42.154;23.002;2023-02-10T04:24:55;98993.88;;;-6.04;84.19
36630;BME280;36256;42.154;23.002;2023-02-10T04:27:21;98994.38;;;-6.02;83.85
36630;BME280;36256;42.154;23.002;2023-02-10T04:29:48;98998.19;;;-6.03;83.41
36630;BME280;36256;42.154;23.002;2023-02-10T04:32:14;98988.00;;;-6.11;84.31
36630;BME280;36256;42.154;23.002;2023-02-10T04:34:41;98993.03;;;-6.18;85.12
36630;BME280;36256;42.154;23.002;2023-02-10T04:37:07;98992.13;;;-6.14;84.96
36630;BME280;36256;42.154;23.002;2023-02-10T04:39:34;98993.13;;;-6.10;82.98
36630;BME280;36256;42.154;23.002;2023-02-10T04:42:01;98992.84;;;-6.08;81.12
36630;BME280;36256;42.154;23.002;2023-02-10T04:44:27;98993.75;;;-6.13;79.74
36630;BME280;36256;42.154;23.002;2023-02-10T04:46:54;99003.97;;;-6.18;79.39
36630;BME280;36256;42.154;23.002;2023-02-10T04:49:21;98992.66;;;-6.25;83.26
36630;BME280;36256;42.154;23.002;2023-02-10T04:51:48;99009.25;;;-6.22;84.09
36630;BME280;36256;42.154;23.002;2023-02-10T04:54:15;98993.97;;;-6.36;83.91
36630;BME280;36256;42.154;23.002;2023-02-10T04:56:41;99007.81;;;-6.33;86.36
36630;BME280;36256;42.154;23.002;2023-02-10T04:59:08;99016.50;;;-6.31;89.38
36630;BME280;36256;42.154;23.002;2023-02-10T05:01:35;99011.44;;;-6.38;86.95
36630;BME280;36256;42.154;23.002;2023-02-10T05:04:02;99014.81;;;-6.41;84.43
36630;BME280;36256;42.154;23.002;2023-02-10T05:06:28;99017.63;;;-6.46;82.93
36630;BME280;36256;42.154;23.002;2023-02-10T05:08:55;99019.72;;;-6.56;82.84
36630;BME280;36256;42.154;23.002;2023-02-10T05:11:22;99022.84;;;-6.63;81.33
36630;BME280;36256;42.154;23.002;2023-02-10T05:13:48;99023.47;;;-6.66;81.79
36630;BME280;36256;42.154;23.002;2023-02-10T05:16:15;99026.19;;;-6.66;83.62
36630;BME280;36256;42.154;23.002;2023-02-10T05:18:42;99025.81;;;-6.59;84.87
36630;BME280;36256;42.154;23.002;2023-02-10T05:21:12;99034.28;;;-6.61;86.87
36630;BME280;36256;42.154;23.002;2023-02-10T05:23:39;99036.50;;;-6.63;86.62
36630;BME280;36256;42.154;23.002;2023-02-10T05:26:06;99044.91;;;-6.59;86.44
36630;BME280;36256;42.154;23.002;2023-02-10T05:28:33;99043.41;;;-6.52;85.56
36630;BME280;36256;42.154;23.002;2023-02-10T05:31:01;99043.31;;;-6.47;84.54
36630;BME280;36256;42.154;23.002;2023-02-10T05:33:27;99046.25;;;-6.43;84.29
36630;BME280;36256;42.154;23.002;2023-02-10T05:35:54;99049.88;;;-6.48;84.04
36630;BME280;36256;42.154;23.002;2023-02-10T05:38:20;99041.28;;;-6.55;84.00
36630;BME280;36256;42.154;23.002;2023-02-10T05:40:48;99061.41;;;-6.51;86.12
36630;BME280;36256;42.154;23.002;2023-02-10T05:43:15;99057.56;;;-6.50;86.79
36630;BME280;36256;42.154;23.002;2023-02-10T05:45:41;99059.19;;;-6.49;87.14
36630;BME280;36256;42.154;23.002;2023-02-10T05:48:08;99069.09;;;-6.53;88.06
36630;BME280;36256;42.154;23.002;2023-02-10T05:50:35;99074.06;;;-6.55;86.78
36630;BME280;36256;42.154;23.002;2023-02-10T05:53:01;99074.34;;;-6.56;85.11
36630;BME280;36256;42.154;23.002;2023-02-10T05:55:28;99073.28;;;-6.74;85.68
36630;BME280;36256;42.154;23.002;2023-02-10T05:57:55;99076.69;;;-6.82;87.09
36630;BME280;36256;42.154;23.002;2023-02-10T06:00:21;99079.06;;;-6.94;89.07
36630;BME280;36256;42.154;23.002;2023-02-10T06:02:48;99077.59;;;-6.86;89.91
36630;BME280;36256;42.154;23.002;2023-02-10T06:05:15;99053.19;;;-6.96;87.34
36630;BME280;36256;42.154;23.002;2023-02-10T06:07:41;99088.47;;;-6.68;86.09
36630;BME280;36256;42.154;23.002;2023-02-10T06:10:08;99084.44;;;-6.57;86.18
36630;BME280;36256;42.154;23.002;2023-02-10T06:12:34;99097.25;;;-6.38;86.40
36630;BME280;36256;42.154;23.002;2023-02-10T06:15:01;99099.28;;;-6.30;87.54
36630;BME280;36256;42.154;23.002;2023-02-10T06:17:28;99099.94;;;-6.06;87.20
36630;BME280;36256;42.154;23.002;2023-02-10T06:19:54;99098.13;;;-5.84;85.12
36630;BME280;36256;42.154;23.002;2023-02-10T06:22:21;99101.94;;;-5.57;84.05
36630;BME280;36256;42.154;23.002;2023-02-10T06:24:47;99091.72;;;-5.30;82.82
36630;BME280;36256;42.154;23.002;2023-02-10T06:27:14;99095.13;;;-5.11;82.17
36630;BME280;36256;42.154;23.002;2023-02-10T06:29:41;99097.75;;;-4.92;81.96
36630;BME280;36256;42.154;23.002;2023-02-10T06:32:08;99097.91;;;-4.89;81.82
36630;BME280;36256;42.154;23.002;2023-02-10T06:34:34;99093.06;;;-4.69;81.22
36630;BME280;36256;42.154;23.002;2023-02-10T06:37:01;99100.66;;;-4.44;79.76
36630;BME280;36256;42.154;23.002;2023-02-10T06:39:28;99088.44;;;-4.16;78.39
36630;BME280;36256;42.154;23.002;2023-02-10T06:41:57;99088.22;;;-3.89;76.81
36630;BME280;36256;42.154;23.002;2023-02-10T06:44:26;99088.13;;;-3.67;74.98
36630;BME280;36256;42.154;23.002;2023-02-10T06:46:52;99077.53;;;-3.51;73.79
36630;BME280;36256;42.154;23.002;2023-02-10T06:49:19;99087.13;;;-3.14;71.78
36630;BME280;36256;42.154;23.002;2023-02-10T06:51:46;99083.28;;;-2.79;70.12
36630;BME280;36256;42.154;23.002;2023-02-10T06:54:12;99082.13;;;-2.53;69.08
36630;BME280;36256;42.154;23.002;2023-02-10T06:56:39;99085.66;;;-2.35;68.04
36630;BME280;36256;42.154;23.002;2023-02-10T06:59:08;99092.94;;;-2.39;67.47
36630;BME280;36256;42.154;23.002;2023-02-10T07:01:34;99092.47;;;-2.50;67.31
36630;BME280;36256;42.154;23.002;2023-02-10T07:04:01;99096.19;;;-2.54;68.06
36630;BME280;36256;42.154;23.002;2023-02-10T07:06:27;99088.78;;;-2.79;68.44
36630;BME280;36256;42.154;23.002;2023-02-10T07:08:54;99081.63;;;-2.63;68.82
36630;BME280;36256;42.154;23.002;2023-02-10T07:11:20;99096.19;;;-2.37;68.71
36630;BME280;36256;42.154;23.002;2023-02-10T07:13:47;99100.63;;;-2.07;67.60
36630;BME280;36256;42.154;23.002;2023-02-10T07:16:14;99090.03;;;-1.88;66.45
36630;BME280;36256;42.154;23.002;2023-02-10T07:18:43;99089.84;;;-1.74;65.54
36630;BME280;36256;42.154;23.002;2023-02-10T07:21:09;99091.22;;;-1.60;64.42
36630;BME280;36256;42.154;23.002;2023-02-10T07:23:36;99090.88;;;-1.58;64.69
36630;BME280;36256;42.154;23.002;2023-02-10T07:26:04;99095.22;;;-1.19;62.90
36630;BME280;36256;42.154;23.002;2023-02-10T07:28:32;99076.34;;;-0.88;61.45
36630;BME280;36256;42.154;23.002;2023-02-10T07:30:59;99088.53;;;-0.36;60.80
36630;BME280;36256;42.154;23.002;2023-02-10T07:33:26;99091.13;;;-0.51;59.83
36630;BME280;36256;42.154;23.002;2023-02-10T07:35:54;99091.47;;;-0.53;60.00
36630;BME280;36256;42.154;23.002;2023-02-10T07:38:24;99079.56;;;-0.45;59.22
36630;BME280;36256;42.154;23.002;2023-02-10T07:40:50;99091.56;;;-0.29;59.67
36630;BME280;36256;42.154;23.002;2023-02-10T07:43:17;99090.31;;;0.26;58.97
36630;BME280;36256;42.154;23.002;2023-02-10T07:45:44;99089.94;;;0.03;57.56
36630;BME280;36256;42.154;23.002;2023-02-10T07:48:10;99076.31;;;-0.14;58.04
36630;BME280;36256;42.154;23.002;2023-02-10T07:50:37;99096.19;;;0.24;57.74
36630;BME280;36256;42.154;23.002;2023-02-10T07:53:04;99081.72;;;0.51;56.72
36630;BME280;36256;42.154;23.002;2023-02-10T07:55:31;99088.38;;;0.74;56.55
36630;BME280;36256;42.154;23.002;2023-02-10T07:57:57;99079.28;;;0.86;56.07
36630;BME280;36256;42.154;23.002;2023-02-10T08:00:24;99081.81;;;0.43;56.52
36630;BME280;36256;42.154;23.002;2023-02-10T08:02:50;99078.34;;;0.22;58.32
36630;BME280;36256;42.154;23.002;2023-02-10T08:05:17;99057.19;;;0.62;57.53
36630;BME280;36256;42.154;23.002;2023-02-10T08:07:44;99070.38;;;1.05;56.64
36630;BME280;36256;42.154;23.002;2023-02-10T08:10:10;99079.63;;;1.36;54.62
36630;BME280;36256;42.154;23.002;2023-02-10T08:12:37;99068.81;;;1.87;53.60
36630;BME280;36256;42.154;23.002;2023-02-10T08:15:05;99071.38;;;2.23;52.56
36630;BME280;36256;42.154;23.002;2023-02-10T08:17:32;99061.69;;;1.86;52.66
36630;BME280;36256;42.154;23.002;2023-02-10T08:19:59;99062.97;;;2.04;53.73
36630;BME280;36256;42.154;23.002;2023-02-10T08:22:26;99066.97;;;2.69;52.04
36630;BME280;36256;42.154;23.002;2023-02-10T08:24:53;99069.66;;;3.50;49.94
36630;BME280;36256;42.154;23.002;2023-02-10T08:27:19;99071.59;;;4.30;47.39
36630;BME280;36256;42.154;23.002;2023-02-10T08:29:46;99063.94;;;4.68;46.64
36630;BME280;36256;42.154;23.002;2023-02-10T08:32:12;99062.84;;;5.29;45.07
36630;BME280;36256;42.154;23.002;2023-02-10T08:34:46;99063.06;;;5.17;45.89
36630;BME280;36256;42.154;23.002;2023-02-10T08:37:13;99067.31;;;4.81;45.69
36630;BME280;36256;42.154;23.002;2023-02-10T08:39:39;99052.31;;;5.45;44.74
36630;BME280;36256;42.154;23.002;2023-02-10T08:42:06;99066.00;;;6.64;41.50
36630;BME280;36256;42.154;23.002;2023-02-10T08:44:33;99055.97;;;7.78;40.06
36630;BME280;36256;42.154;23.002;2023-02-10T08:47:00;99051.75;;;7.30;39.84
36630;BME280;36256;42.154;23.002;2023-02-10T08:49:26;99053.03;;;7.50;39.20
36630;BME280;36256;42.154;23.002;2023-02-10T08:51:54;99043.41;;;8.44;38.03
36630;BME280;36256;42.154;23.002;2023-02-10T08:54:22;99048.16;;;9.28;37.05
36630;BME280;36256;42.154;23.002;2023-02-10T08:56:53;99044.94;;;8.17;37.61
36630;BME280;36256;42.154;23.002;2023-02-10T08:59:19;99039.31;;;8.14;38.76
36630;BME280;36256;42.154;23.002;2023-02-10T09:01:46;99041.78;;;9.17;37.73
36630;BME280;36256;42.154;23.002;2023-02-10T09:04:13;99039.31;;;9.47;36.12
36630;BME280;36256;42.154;23.002;2023-02-10T09:06:40;99035.19;;;9.77;35.55
36630;BME280;36256;42.154;23.002;2023-02-10T09:09:17;99042.66;;;10.73;33.93
36630;BME280;36256;42.154;23.002;2023-02-10T09:11:46;99023.91;;;9.91;34.46
36630;BME280;36256;42.154;23.002;2023-02-10T09:14:12;99036.06;;;9.52;35.22
36630;BME280;36256;42.154;23.002;2023-02-10T09:16:39;99010.34;;;9.86;36.18
36630;BME280;36256;42.154;23.002;2023-02-10T09:19:06;99030.53;;;11.28;33.90
36630;BME280;36256;42.154;23.002;2023-02-10T09:21:33;99025.34;;;11.97;33.13
36630;BME280;36256;42.154;23.002;2023-02-10T09:24:12;99022.81;;;12.59;31.79
36630;BME280;36256;42.154;23.002;2023-02-10T09:26:39;99023.81;;;11.89;32.20
36630;BME280;36256;42.154;23.002;2023-02-10T09:29:06;99019.13;;;12.39;32.09
36630;BME280;36256;42.154;23.002;2023-02-10T09:31:34;99003.34;;;11.55;33.25
36630;BME280;36256;42.154;23.002;2023-02-10T09:34:02;99010.63;;;11.49;33.70
36630;BME280;36256;42.154;23.002;2023-02-10T09:36:28;99014.06;;;12.27;32.47
36630;BME280;36256;42.154;23.002;2023-02-10T09:38:56;99000.94;;;12.17;31.90
36630;BME280;36256;42.154;23.002;2023-02-10T09:41:26;98997.13;;;10.48;33.41
36630;BME280;36256;42.154;23.002;2023-02-10T09:52:24;98979.19;;;6.21;41.32
36630;BME280;36256;42.154;23.002;2023-02-10T09:54:55;98970.81;;;5.48;42.94
36630;BME280;36256;42.154;23.002;2023-02-10T09:57:32;98963.31;;;5.52;44.06
36630;BME280;36256;42.154;23.002;2023-02-10T10:00:03;98961.00;;;4.95;43.79
36630;BME280;36256;42.154;23.002;2023-02-10T10:02:45;98948.84;;;4.76;44.89
36630;BME280;36256;42.154;23.002;2023-02-10T10:05:41;98941.66;;;4.23;45.94
36630;BME280;36256;42.154;23.002;2023-02-10T10:08:14;98946.53;;;4.30;46.41
36630;BME280;36256;42.154;23.002;2023-02-10T10:10:44;98949.34;;;4.56;47.29
36630;BME280;36256;42.154;23.002;2023-02-10T10:13:20;98940.06;;;4.74;46.63
36630;BME280;36256;42.154;23.002;2023-02-10T10:21:27;98936.31;;;4.37;45.68
36630;BME280;36256;42.154;23.002;2023-02-10T10:26:55;98932.16;;;4.76;47.18
36630;BME280;36256;42.154;23.002;2023-02-10T10:29:54;98928.66;;;4.83;46.20
36630;BME280;36256;42.154;23.002;2023-02-10T10:32:46;98924.53;;;4.73;45.71
36630;BME280;36256;42.154;23.002;2023-02-10T10:35:29;98916.13;;;4.66;46.31
36630;BME280;36256;42.154;23.002;2023-02-10T10:37:57;98911.03;;;4.46;46.42
36630;BME280;36256;42.154;23.002;2023-02-10T10:40:28;98911.09;;;4.49;46.22
36630;BME280;36256;42.154;23.002;2023-02-10T10:42:59;98900.59;;;4.65;46.07
36630;BME280;36256;42.154;23.002;2023-02-10T10:45:35;98900.31;;;4.74;45.14
36630;BME280;36256;42.154;23.002;2023-02-10T10:48:16;98877.19;;;4.66;46.55
36630;BME280;36256;42.154;23.002;2023-02-10T10:50:43;98897.22;;;4.79;46.10
36630;BME280;36256;42.154;23.002;2023-02-10T10:53:35;98886.28;;;4.93;45.65
36630;BME280;36256;42.154;23.002;2023-02-10T10:56:06;98874.81;;;4.98;45.85
36630;BME280;36256;42.154;23.002;2023-02-10T10:58:40;98873.91;;;5.24;46.53
36630;BME280;36256;42.154;23.002;2023-02-10T11:01:12;98872.63;;;5.51;43.88
36630;BME280;36256;42.154;23.002;2023-02-10T11:03:39;98869.47;;;5.56;43.75
36630;BME280;36256;42.154;23.002;2023-02-10T11:06:09;98871.72;;;5.80;45.05
36630;BME280;36256;42.154;23.002;2023-02-10T11:11:13;98864.81;;;5.67;43.82
36630;BME280;36256;42.154;23.002;2023-02-10T11:14:01;98839.25;;;5.58;42.59
36630;BME280;36256;42.154;23.002;2023-02-10T11:16:28;98852.22;;;5.80;44.66
36630;BME280;36256;42.154;23.002;2023-02-10T11:18:58;98848.41;;;6.02;43.59
36630;BME280;36256;42.154;23.002;2023-02-10T11:21:38;98840.63;;;6.22;43.62
36630;BME280;36256;42.154;23.002;2023-02-10T11:24:28;98840.63;;;6.25;41.88
36630;BME280;36256;42.154;23.002;2023-02-10T11:27:05;98830.00;;;5.87;42.04
36630;BME280;36256;42.154;23.002;2023-02-10T11:29:39;98832.09;;;5.97;42.36
36630;BME280;36256;42.154;23.002;2023-02-10T11:32:18;98821.34;;;5.99;42.49
36630;BME280;36256;42.154;23.002;2023-02-10T11:34:46;98821.97;;;5.82;42.87
36630;BME280;36256;42.154;23.002;2023-02-10T11:37:26;98815.78;;;5.99;43.09
36630;BME280;36256;42.154;23.002;2023-02-10T11:39:55;98804.56;;;5.92;41.58
36630;BME280;36256;42.154;23.002;2023-02-10T11:42:29;98799.91;;;6.10;43.33
36630;BME280;36256;42.154;23.002;2023-02-10T11:45:00;98805.53;;;6.17;43.43
36630;BME280;36256;42.154;23.002;2023-02-10T11:47:31;98807.28;;;6.40;42.72
36630;BME280;36256;42.154;23.002;2023-02-10T11:49:58;98791.72;;;6.39;42.28
36630;BME280;36256;42.154;23.002;2023-02-10T11:52:29;98802.81;;;6.31;41.62
36630;BME280;36256;42.154;23.002;2023-02-10T11:54:56;98786.44;;;6.16;43.14
36630;BME280;36256;42.154;23.002;2023-02-10T11:57:49;98780.53;;;6.31;43.16
36630;BME280;36256;42.154;23.002;2023-02-10T12:00:53;98771.34;;;6.24;41.22
36630;BME280;36256;42.154;23.002;2023-02-10T12:03:28;98768.25;;;6.40;41.76
36630;BME280;36256;42.154;23.002;2023-02-10T12:09:29;98766.00;;;6.73;41.74
36630;BME280;36256;42.154;23.002;2023-02-10T12:14:42;98751.72;;;7.03;43.54
36630;BME280;36256;42.154;23.002;2023-02-10T12:31:53;98730.22;;;7.67;40.86
36630;BME280;36256;42.154;23.002;2023-02-10T12:37:30;98719.03;;;7.77;40.61
36630;BME280;36256;42.154;23.002;2023-02-10T12:43:24;98707.03;;;7.98;41.57
36630;BME280;36256;42.154;23.002;2023-02-10T12:53:59;98702.25;;;7.84;40.54
36630;BME280;36256;42.154;23.002;2023-02-10T12:56:39;98700.69;;;7.76;39.98
36630;BME280;36256;42.154;23.002;2023-02-10T12:59:14;98701.47;;;7.63;40.52
36630;BME280;36256;42.154;23.002;2023-02-10T13:02:04;98696.28;;;7.75;41.06
36630;BME280;36256;42.154;23.002;2023-02-10T13:04:36;98694.28;;;7.79;39.98
36630;BME280;36256;42.154;23.002;2023-02-10T13:07:12;98690.69;;;7.82;40.89
36630;BME280;36256;42.154;23.002;2023-02-10T13:09:50;98695.00;;;8.05;40.64
36630;BME280;36256;42.154;23.002;2023-02-10T13:12:29;98697.03;;;8.01;40.49
36630;BME280;36256;42.154;23.002;2023-02-10T13:15:02;98689.47;;;7.98;40.92
36630;BME280;36256;42.154;23.002;2023-02-10T13:17:49;98692.59;;;8.14;40.49
36630;BME280;36256;42.154;23.002;2023-02-10T13:34:04;98685.47;;;7.95;38.30
36630;BME280;36256;42.154;23.002;2023-02-10T13:36:40;98678.31;;;7.76;39.19
36630;BME280;36256;42.154;23.002;2023-02-10T13:39:20;98674.31;;;7.77;39.19
36630;BME280;36256;42.154;23.002;2023-02-10T13:41:50;98670.34;;;7.71;39.28
36630;BME280;36256;42.154;23.002;2023-02-10T13:44:29;98651.19;;;7.70;39.31
36630;BME280;36256;42.154;23.002;2023-02-10T13:50:07;98669.56;;;7.60;38.64
36630;BME280;36256;42.154;23.002;2023-02-10T13:57:57;98657.59;;;7.46;38.44
36630;BME280;36256;42.154;23.002;2023-02-10T14:00:45;98664.78;;;7.57;39.35
36630;BME280;36256;42.154;23.002;2023-02-10T14:06:07;98661.56;;;7.66;38.90
36630;BME280;36256;42.154;23.002;2023-02-10T14:08:42;98680.34;;;7.65;38.43
36630;BME280;36256;42.154;23.002;2023-02-10T14:11:40;98676.72;;;7.72;37.41
36630;BME280;36256;42.154;23.002;2023-02-10T14:14:30;98662.00;;;7.64;38.49
36630;BME280;36256;42.154;23.002;2023-02-10T14:17:21;98674.34;;;7.63;38.45
36630;BME280;36256;42.154;23.002;2023-02-10T14:19:51;98670.75;;;7.52;39.86
36630;BME280;36256;42.154;23.002;2023-02-10T14:22:32;98648.44;;;7.31;38.71
36630;BME280;36256;42.154;23.002;2023-02-10T14:25:29;98664.00;;;7.39;38.40
36630;BME280;36256;42.154;23.002;2023-02-10T14:27:56;98666.41;;;7.34;38.30
36630;BME280;36256;42.154;23.002;2023-02-10T14:30:33;98668.81;;;7.39;39.47
36630;BME280;36256;42.154;23.002;2023-02-10T14:33:04;98662.41;;;7.31;40.15
36630;BME280;36256;42.154;23.002;2023-02-10T14:35:31;98666.41;;;7.30;39.68
36630;BME280;36256;42.154;23.002;2023-02-10T14:38:04;98660.00;;;7.23;40.65
36630;BME280;36256;42.154;23.002;2023-02-10T14:40:32;98660.41;;;7.25;40.24
36630;BME280;36256;42.154;23.002;2023-02-10T14:43:00;98659.63;;;7.17;39.86
36630;BME280;36256;42.154;23.002;2023-02-10T14:45:28;98660.03;;;7.19;40.09
36630;BME280;36256;42.154;23.002;2023-02-10T14:47:57;98674.38;;;7.00;42.08
36630;BME280;36256;42.154;23.002;2023-02-10T14:52:53;98658.78;;;6.85;41.20
36630;BME280;36256;42.154;23.002;2023-02-10T14:55:36;98661.56;;;6.74;41.08
36630;BME280;36256;42.154;23.002;2023-02-10T15:00:35;98657.13;;;6.49;43.08